sensor_id;sensor_type;location;lat;lon;timestamp;P1;durP1;ratioP1;P2;durP2;ratioP2
9900;SDS011;4989;48.772;9.154;2022-12-10T00:01:56;13.07;;;10.17;;
9900;SDS011;4989;48.772;9.154;2022-12-10T00:06:59;15.83;;;10.80;;
9900;SDS011;4989;48.772;9.154;2022-12-10T00:12:01;17.57;;;11.60;;
9900;SDS011;4989;48.772;9.154;2022-12-10T00:17:04;14.83;;;10.80;;
9900;SDS011;4989;48.772;9.154;2022-12-10T00:22:13;15.40;;;10.93;;
9900;SDS011;4989;48.772;9.154;2022-12-10T00:27:15;12.97;;;10.60;;
9900;SDS011;4989;48.772;9.154;2022-12-10T00:32:18;16.17;;;10.63;;
9900;SDS011;4989;48.772;9.154;2022-12-10T00:37:20;16.17;;;10.87;;
9900;SDS011;4989;48.772;9.154;2022-12-10T00:42:23;15.03;;;10.67;;
9900;SDS011;4989;48.772;9.154;2022-12-10T00:47:26;14.43;;;10.50;;
9900;SDS011;4989;48.772;9.154;2022-12-10T00:52:28;16.13;;;10.77;;
9900;SDS011;4989;48.772;9.154;2022-12-10T00:57:31;15.67;;;9.83;;
9900;SDS011;4989;48.772;9.154;2022-12-10T01:02:34;14.90;;;10.80;;
9900;SDS011;4989;48.772;9.154;2022-12-10T01:07:37;14.53;;;10.57;;
9900;SDS011;4989;48.772;9.154;2022-12-10T01:12:39;15.40;;;10.90;;
9900;SDS011;4989;48.772;9.154;2022-12-10T01:17:42;12.97;;;9.17;;
9900;SDS011;4989;48.772;9.154;2022-12-10T01:22:47;13.97;;;10.53;;
9900;SDS011;4989;48.772;9.154;2022-12-10T01:27:49;14.67;;;10.13;;
9900;SDS011;4989;48.772;9.154;2022-12-10T01:32:52;14.93;;;10.37;;
9900;SDS011;4989;48.772;9.154;2022-12-10T01:37:54;16.53;;;10.17;;
9900;SDS011;4989;48.772;9.154;2022-12-10T01:42:57;17.80;;;10.63;;
9900;SDS011;4989;48.772;9.154;2022-12-10T01:48:01;15.70;;;10.17;;
9900;SDS011;4989;48.772;9.154;2022-12-10T01:53:08;13.00;;;9.53;;
9900;SDS011;4989;48.772;9.154;2022-12-10T01:58:11;14.77;;;9.93;;
9900;SDS011;4989;48.772;9.154;2022-12-10T02:03:19;14.37;;;9.73;;
9900;SDS011;4989;48.772;9.154;2022-12-10T02:08:33;14.33;;;10.20;;
9900;SDS011;4989;48.772;9.154;2022-12-10T02:13:45;14.67;;;10.13;;
9900;SDS011;4989;48.772;9.154;2022-12-10T02:24:33;16.30;;;10.00;;
9900;SDS011;4989;48.772;9.154;2022-12-10T02:29:37;12.57;;;9.30;;
9900;SDS011;4989;48.772;9.154;2022-12-10T02:34:47;15.27;;;10.20;;
9900;SDS011;4989;48.772;9.154;2022-12-10T02:39:54;13.33;;;10.07;;
9900;SDS011;4989;48.772;9.154;2022-12-10T02:45:03;15.67;;;10.50;;
9900;SDS011;4989;48.772;9.154;2022-12-10T02:50:09;13.70;;;9.50;;
9900;SDS011;4989;48.772;9.154;2022-12-10T02:55:15;13.67;;;10.00;;
9900;SDS011;4989;48.772;9.154;2022-12-10T03:00:24;13.93;;;10.20;;
9900;SDS011;4989;48.772;9.154;2022-12-10T03:05:42;16.50;;;10.17;;
9900;SDS011;4989;48.772;9.154;2022-12-10T03:11:04;15.80;;;10.37;;
9900;SDS011;4989;48.772;9.154;2022-12-10T03:16:12;14.67;;;10.60;;
9900;SDS011;4989;48.772;9.154;2022-12-10T03:21:16;14.47;;;10.30;;
9900;SDS011;4989;48.772;9.154;2022-12-10T03:26:19;14.10;;;9.97;;
9900;SDS011;4989;48.772;9.154;2022-12-10T03:31:24;16.23;;;10.50;;
9900;SDS011;4989;48.772;9.154;2022-12-10T03:36:27;14.97;;;9.87;;
9900;SDS011;4989;48.772;9.154;2022-12-10T03:41:32;12.67;;;9.33;;
9900;SDS011;4989;48.772;9.154;2022-12-10T03:46:35;15.50;;;10.50;;
9900;SDS011;4989;48.772;9.154;2022-12-10T03:51:37;13.83;;;10.33;;
9900;SDS011;4989;48.772;9.154;2022-12-10T03:56:39;13.47;;;9.10;;
9900;SDS011;4989;48.772;9.154;2022-12-10T04:01:42;14.13;;;10.07;;
9900;SDS011;4989;48.772;9.154;2022-12-10T04:06:45;12.23;;;9.57;;
9900;SDS011;4989;48.772;9.154;2022-12-10T04:11:47;16.03;;;10.13;;
9900;SDS011;4989;48.772;9.154;2022-12-10T04:16:50;14.03;;;9.33;;
9900;SDS011;4989;48.772;9.154;2022-12-10T04:21:52;16.83;;;9.90;;
9900;SDS011;4989;48.772;9.154;2022-12-10T04:32:27;15.90;;;9.47;;
9900;SDS011;4989;48.772;9.154;2022-12-10T04:37:33;12.43;;;9.97;;
9900;SDS011;4989;48.772;9.154;2022-12-10T04:42:36;14.63;;;9.77;;
9900;SDS011;4989;48.772;9.154;2022-12-10T04:47:38;13.83;;;10.03;;
9900;SDS011;4989;48.772;9.154;2022-12-10T04:52:40;16.23;;;9.87;;
9900;SDS011;4989;48.772;9.154;2022-12-10T04:57:43;11.73;;;8.90;;
9900;SDS011;4989;48.772;9.154;2022-12-10T05:02:47;13.90;;;9.03;;
9900;SDS011;4989;48.772;9.154;2022-12-10T05:07:51;17.37;;;11.03;;
9900;SDS011;4989;48.772;9.154;2022-12-10T05:12:53;16.43;;;11.07;;
9900;SDS011;4989;48.772;9.154;2022-12-10T05:17:55;13.90;;;9.57;;
9900;SDS011;4989;48.772;9.154;2022-12-10T05:22:58;13.20;;;9.80;;
9900;SDS011;4989;48.772;9.154;2022-12-10T05:28:22;16.37;;;10.03;;
9900;SDS011;4989;48.772;9.154;2022-12-10T05:33:24;14.97;;;10.87;;
9900;SDS011;4989;48.772;9.154;2022-12-10T05:38:28;14.03;;;9.40;;
9900;SDS011;4989;48.772;9.154;2022-12-10T05:43:32;17.00;;;11.10;;
9900;SDS011;4989;48.772;9.154;2022-12-10T05:48:34;16.20;;;11.47;;
9900;SDS011;4989;48.772;9.154;2022-12-10T05:53:37;13.23;;;9.90;;
9900;SDS011;4989;48.772;9.154;2022-12-10T05:58:41;15.63;;;11.23;;
9900;SDS011;4989;48.772;9.154;2022-12-10T06:03:45;15.40;;;10.20;;
9900;SDS011;4989;48.772;9.154;2022-12-10T06:08:49;13.17;;;10.07;;
9900;SDS011;4989;48.772;9.154;2022-12-10T06:13:51;16.27;;;10.37;;
9900;SDS011;4989;48.772;9.154;2022-12-10T06:18:57;13.57;;;9.63;;
9900;SDS011;4989;48.772;9.154;2022-12-10T06:24:00;14.30;;;9.60;;
9900;SDS011;4989;48.772;9.154;2022-12-10T06:29:02;15.73;;;9.90;;
9900;SDS011;4989;48.772;9.154;2022-12-10T06:34:06;14.17;;;9.30;;
9900;SDS011;4989;48.772;9.154;2022-12-10T06:39:08;16.67;;;10.20;;
9900;SDS011;4989;48.772;9.154;2022-12-10T06:44:11;13.27;;;10.13;;
9900;SDS011;4989;48.772;9.154;2022-12-10T06:49:13;14.10;;;9.67;;
9900;SDS011;4989;48.772;9.154;2022-12-10T06:54:16;13.73;;;9.77;;
9900;SDS011;4989;48.772;9.154;2022-12-10T06:59:18;15.20;;;9.93;;
9900;SDS011;4989;48.772;9.154;2022-12-10T07:04:22;14.60;;;10.27;;
9900;SDS011;4989;48.772;9.154;2022-12-10T07:09:24;14.57;;;10.37;;
9900;SDS011;4989;48.772;9.154;2022-12-10T07:14:27;14.30;;;10.73;;
9900;SDS011;4989;48.772;9.154;2022-12-10T07:19:29;13.73;;;9.70;;
9900;SDS011;4989;48.772;9.154;2022-12-10T07:24:32;14.20;;;10.10;;
9900;SDS011;4989;48.772;9.154;2022-12-10T07:29:36;15.87;;;11.50;;
9900;SDS011;4989;48.772;9.154;2022-12-10T07:34:39;18.13;;;11.67;;
9900;SDS011;4989;48.772;9.154;2022-12-10T07:39:41;17.07;;;10.73;;
9900;SDS011;4989;48.772;9.154;2022-12-10T07:44:44;14.43;;;10.37;;
9900;SDS011;4989;48.772;9.154;2022-12-10T07:49:49;14.03;;;10.10;;
9900;SDS011;4989;48.772;9.154;2022-12-10T07:54:52;12.27;;;8.97;;
9900;SDS011;4989;48.772;9.154;2022-12-10T07:59:54;16.33;;;10.93;;
9900;SDS011;4989;48.772;9.154;2022-12-10T08:04:56;15.60;;;10.27;;
9900;SDS011;4989;48.772;9.154;2022-12-10T08:09:59;16.43;;;10.20;;
9900;SDS011;4989;48.772;9.154;2022-12-10T08:15:02;15.87;;;9.40;;
9900;SDS011;4989;48.772;9.154;2022-12-10T08:20:05;18.43;;;11.07;;
9900;SDS011;4989;48.772;9.154;2022-12-10T08:25:09;18.50;;;10.60;;
9900;SDS011;4989;48.772;9.154;2022-12-10T08:30:11;15.23;;;10.67;;
9900;SDS011;4989;48.772;9.154;2022-12-10T08:35:14;17.90;;;11.50;;
9900;SDS011;4989;48.772;9.154;2022-12-10T08:40:16;15.30;;;11.13;;
9900;SDS011;4989;48.772;9.154;2022-12-10T08:45:19;15.57;;;10.83;;
9900;SDS011;4989;48.772;9.154;2022-12-10T08:50:21;14.67;;;9.90;;
9900;SDS011;4989;48.772;9.154;2022-12-10T08:55:24;15.57;;;10.33;;
9900;SDS011;4989;48.772;9.154;2022-12-10T09:00:26;15.27;;;10.67;;
9900;SDS011;4989;48.772;9.154;2022-12-10T09:05:29;14.70;;;10.43;;
9900;SDS011;4989;48.772;9.154;2022-12-10T09:10:31;15.23;;;10.47;;
9900;SDS011;4989;48.772;9.154;2022-12-10T09:15:34;16.57;;;11.70;;
9900;SDS011;4989;48.772;9.154;2022-12-10T09:20:37;15.07;;;9.77;;
9900;SDS011;4989;48.772;9.154;2022-12-10T09:25:39;15.97;;;11.40;;
9900;SDS011;4989;48.772;9.154;2022-12-10T09:30:42;16.83;;;11.50;;
9900;SDS011;4989;48.772;9.154;2022-12-10T09:35:44;15.87;;;10.63;;
9900;SDS011;4989;48.772;9.154;2022-12-10T09:56:10;16.27;;;10.83;;
9900;SDS011;4989;48.772;9.154;2022-12-10T10:01:27;13.97;;;9.97;;
9900;SDS011;4989;48.772;9.154;2022-12-10T10:06:34;14.57;;;10.60;;
9900;SDS011;4989;48.772;9.154;2022-12-10T10:11:37;17.60;;;11.30;;
9900;SDS011;4989;48.772;9.154;2022-12-10T10:16:51;21.13;;;12.27;;
9900;SDS011;4989;48.772;9.154;2022-12-10T10:22:09;19.70;;;12.33;;
9900;SDS011;4989;48.772;9.154;2022-12-10T10:27:16;18.73;;;10.97;;
9900;SDS011;4989;48.772;9.154;2022-12-10T10:32:28;16.97;;;11.60;;
9900;SDS011;4989;48.772;9.154;2022-12-10T10:38:27;17.50;;;10.83;;
9900;SDS011;4989;48.772;9.154;2022-12-10T10:43:25;12.77;;;8.93;;
9900;SDS011;4989;48.772;9.154;2022-12-10T10:48:49;14.90;;;10.53;;
9900;SDS011;4989;48.772;9.154;2022-12-10T10:53:53;15.07;;;10.60;;
9900;SDS011;4989;48.772;9.154;2022-12-10T10:58:58;18.20;;;11.60;;
9900;SDS011;4989;48.772;9.154;2022-12-10T11:04:05;15.93;;;10.73;;
9900;SDS011;4989;48.772;9.154;2022-12-10T11:09:07;16.87;;;11.67;;
9900;SDS011;4989;48.772;9.154;2022-12-10T11:19:27;14.90;;;10.70;;
9900;SDS011;4989;48.772;9.154;2022-12-10T11:24:30;15.03;;;10.37;;
9900;SDS011;4989;48.772;9.154;2022-12-10T11:50:52;13.93;;;10.17;;
9900;SDS011;4989;48.772;9.154;2022-12-10T12:22:34;14.03;;;10.17;;
9900;SDS011;4989;48.772;9.154;2022-12-10T12:27:41;15.67;;;10.43;;
9900;SDS011;4989;48.772;9.154;2022-12-10T12:43:18;14.17;;;9.33;;
9900;SDS011;4989;48.772;9.154;2022-12-10T12:48:34;13.57;;;9.37;;
9900;SDS011;4989;48.772;9.154;2022-12-10T12:53:52;14.07;;;9.50;;
9900;SDS011;4989;48.772;9.154;2022-12-10T13:04:09;11.97;;;7.90;;
9900;SDS011;4989;48.772;9.154;2022-12-10T13:14:29;12.73;;;9.37;;
9900;SDS011;4989;48.772;9.154;2022-12-10T13:19:34;14.40;;;10.00;;
9900;SDS011;4989;48.772;9.154;2022-12-10T13:29:57;15.23;;;10.67;;
9900;SDS011;4989;48.772;9.154;2022-12-10T14:06:23;14.33;;;10.23;;
9900;SDS011;4989;48.772;9.154;2022-12-10T14:11:31;12.80;;;9.20;;
9900;SDS011;4989;48.772;9.154;2022-12-10T14:16:39;15.37;;;9.90;;
9900;SDS011;4989;48.772;9.154;2022-12-10T14:21:43;14.13;;;9.60;;
9900;SDS011;4989;48.772;9.154;2022-12-10T14:26:54;14.00;;;9.50;;
9900;SDS011;4989;48.772;9.154;2022-12-10T14:32:02;13.87;;;10.17;;
9900;SDS011;4989;48.772;9.154;2022-12-10T14:37:06;13.40;;;9.60;;
9900;SDS011;4989;48.772;9.154;2022-12-10T14:42:14;14.47;;;9.93;;
9900;SDS011;4989;48.772;9.154;2022-12-10T14:47:19;12.50;;;9.53;;
9900;SDS011;4989;48.772;9.154;2022-12-10T14:52:30;12.10;;;9.00;;
9900;SDS011;4989;48.772;9.154;2022-12-10T14:57:40;13.63;;;9.93;;
9900;SDS011;4989;48.772;9.154;2022-12-10T15:02:51;11.07;;;8.33;;
9900;SDS011;4989;48.772;9.154;2022-12-10T15:13:03;13.60;;;9.27;;
9900;SDS011;4989;48.772;9.154;2022-12-10T15:18:11;13.03;;;8.87;;
9900;SDS011;4989;48.772;9.154;2022-12-10T15:28:35;12.70;;;8.97;;
9900;SDS011;4989;48.772;9.154;2022-12-10T15:33:41;12.90;;;9.10;;
9900;SDS011;4989;48.772;9.154;2022-12-10T15:38:47;12.93;;;9.40;;
9900;SDS011;4989;48.772;9.154;2022-12-10T15:44:03;13.67;;;9.10;;
9900;SDS011;4989;48.772;9.154;2022-12-10T15:49:08;14.80;;;10.10;;
9900;SDS011;4989;48.772;9.154;2022-12-10T15:59:29;13.50;;;8.93;;
9900;SDS011;4989;48.772;9.154;2022-12-10T16:04:31;13.70;;;9.50;;
9900;SDS011;4989;48.772;9.154;2022-12-10T16:09:34;17.43;;;9.60;;
9900;SDS011;4989;48.772;9.154;2022-12-10T16:14:36;14.57;;;9.37;;
9900;SDS011;4989;48.772;9.154;2022-12-10T16:19:39;11.67;;;8.33;;
9900;SDS011;4989;48.772;9.154;2022-12-10T16:24:42;13.60;;;8.70;;
9900;SDS011;4989;48.772;9.154;2022-12-10T16:29:45;11.70;;;8.80;;
9900;SDS011;4989;48.772;9.154;2022-12-10T16:34:48;14.13;;;9.23;;
9900;SDS011;4989;48.772;9.154;2022-12-10T16:39:51;13.30;;;8.60;;
9900;SDS011;4989;48.772;9.154;2022-12-10T16:45:00;14.70;;;9.60;;
9900;SDS011;4989;48.772;9.154;2022-12-10T16:50:09;10.87;;;7.80;;
9900;SDS011;4989;48.772;9.154;2022-12-10T16:55:14;13.13;;;8.80;;
9900;SDS011;4989;48.772;9.154;2022-12-10T17:00:20;12.60;;;9.47;;
9900;SDS011;4989;48.772;9.154;2022-12-10T17:05:31;12.33;;;8.63;;
9900;SDS011;4989;48.772;9.154;2022-12-10T17:10:37;11.17;;;7.90;;
9900;SDS011;4989;48.772;9.154;2022-12-10T17:15:58;14.17;;;8.53;;
9900;SDS011;4989;48.772;9.154;2022-12-10T17:21:01;13.10;;;8.47;;
9900;SDS011;4989;48.772;9.154;2022-12-10T17:26:03;12.47;;;8.60;;
9900;SDS011;4989;48.772;9.154;2022-12-10T17:31:06;12.37;;;8.43;;
9900;SDS011;4989;48.772;9.154;2022-12-10T17:36:09;13.73;;;9.07;;
9900;SDS011;4989;48.772;9.154;2022-12-10T17:41:12;11.80;;;8.87;;
9900;SDS011;4989;48.772;9.154;2022-12-10T17:46:21;11.90;;;8.07;;
9900;SDS011;4989;48.772;9.154;2022-12-10T17:51:25;10.33;;;8.00;;
9900;SDS011;4989;48.772;9.154;2022-12-10T17:56:28;12.67;;;8.40;;
9900;SDS011;4989;48.772;9.154;2022-12-10T18:01:31;11.20;;;7.87;;
9900;SDS011;4989;48.772;9.154;2022-12-10T18:06:35;9.97;;;7.63;;
9900;SDS011;4989;48.772;9.154;2022-12-10T18:11:37;12.93;;;9.53;;
9900;SDS011;4989;48.772;9.154;2022-12-10T18:16:43;12.13;;;8.97;;
9900;SDS011;4989;48.772;9.154;2022-12-10T18:21:47;10.77;;;7.73;;
9900;SDS011;4989;48.772;9.154;2022-12-10T18:26:55;11.03;;;7.97;;
9900;SDS011;4989;48.772;9.154;2022-12-10T18:31:59;11.00;;;7.63;;
9900;SDS011;4989;48.772;9.154;2022-12-10T18:37:01;12.10;;;8.63;;
9900;SDS011;4989;48.772;9.154;2022-12-10T18:42:04;12.23;;;7.90;;
9900;SDS011;4989;48.772;9.154;2022-12-10T18:47:08;13.03;;;8.20;;
9900;SDS011;4989;48.772;9.154;2022-12-10T18:52:11;10.43;;;8.37;;
9900;SDS011;4989;48.772;9.154;2022-12-10T18:57:14;14.97;;;9.27;;
9900;SDS011;4989;48.772;9.154;2022-12-10T19:02:37;12.73;;;8.63;;
9900;SDS011;4989;48.772;9.154;2022-12-10T19:07:39;12.40;;;8.10;;
9900;SDS011;4989;48.772;9.154;2022-12-10T19:12:42;12.47;;;8.50;;
9900;SDS011;4989;48.772;9.154;2022-12-10T19:17:45;12.73;;;9.23;;
9900;SDS011;4989;48.772;9.154;2022-12-10T19:22:48;14.30;;;9.00;;
9900;SDS011;4989;48.772;9.154;2022-12-10T19:27:51;15.17;;;10.63;;
9900;SDS011;4989;48.772;9.154;2022-12-10T19:32:53;11.73;;;8.13;;
9900;SDS011;4989;48.772;9.154;2022-12-10T19:37:56;15.60;;;9.83;;
9900;SDS011;4989;48.772;9.154;2022-12-10T19:42:58;18.27;;;10.70;;
9900;SDS011;4989;48.772;9.154;2022-12-10T19:48:01;11.53;;;8.57;;
9900;SDS011;4989;48.772;9.154;2022-12-10T19:53:03;12.57;;;8.60;;
9900;SDS011;4989;48.772;9.154;2022-12-10T19:58:08;11.47;;;8.90;;
9900;SDS011;4989;48.772;9.154;2022-12-10T20:03:11;16.13;;;9.57;;
9900;SDS011;4989;48.772;9.154;2022-12-10T20:08:13;11.33;;;8.83;;
9900;SDS011;4989;48.772;9.154;2022-12-10T20:13:16;11.13;;;8.90;;
9900;SDS011;4989;48.772;9.154;2022-12-10T20:18:18;10.67;;;8.27;;
9900;SDS011;4989;48.772;9.154;2022-12-10T20:23:21;11.60;;;8.30;;
9900;SDS011;4989;48.772;9.154;2022-12-10T20:28:23;13.60;;;8.90;;
9900;SDS011;4989;48.772;9.154;2022-12-10T20:33:25;10.73;;;8.30;;
9900;SDS011;4989;48.772;9.154;2022-12-10T20:38:47;11.40;;;8.33;;
9900;SDS011;4989;48.772;9.154;2022-12-10T20:43:49;12.83;;;8.90;;
9900;SDS011;4989;48.772;9.154;2022-12-10T20:48:52;13.13;;;9.00;;
9900;SDS011;4989;48.772;9.154;2022-12-10T20:53:54;11.67;;;8.47;;
9900;SDS011;4989;48.772;9.154;2022-12-10T20:58:57;13.93;;;9.23;;
9900;SDS011;4989;48.772;9.154;2022-12-10T21:04:00;11.07;;;8.70;;
9900;SDS011;4989;48.772;9.154;2022-12-10T21:09:02;11.50;;;8.00;;
9900;SDS011;4989;48.772;9.154;2022-12-10T21:14:05;10.67;;;8.60;;
9900;SDS011;4989;48.772;9.154;2022-12-10T21:19:27;11.90;;;8.30;;
9900;SDS011;4989;48.772;9.154;2022-12-10T21:24:30;11.27;;;7.63;;
9900;SDS011;4989;48.772;9.154;2022-12-10T21:29:33;9.57;;;7.63;;
9900;SDS011;4989;48.772;9.154;2022-12-10T21:34:35;11.33;;;7.70;;
9900;SDS011;4989;48.772;9.154;2022-12-10T21:39:38;10.70;;;7.23;;
9900;SDS011;4989;48.772;9.154;2022-12-10T21:44:40;10.80;;;7.37;;
9900;SDS011;4989;48.772;9.154;2022-12-10T21:49:42;10.13;;;7.10;;
9900;SDS011;4989;48.772;9.154;2022-12-10T21:54:45;10.50;;;7.27;;
9900;SDS011;4989;48.772;9.154;2022-12-10T21:59:48;9.53;;;7.00;;
9900;SDS011;4989;48.772;9.154;2022-12-10T22:04:50;9.80;;;6.90;;
9900;SDS011;4989;48.772;9.154;2022-12-10T22:09:52;10.00;;;7.20;;
9900;SDS011;4989;48.772;9.154;2022-12-10T22:14:55;8.83;;;6.50;;
9900;SDS011;4989;48.772;9.154;2022-12-10T22:19:58;8.27;;;5.80;;
9900;SDS011;4989;48.772;9.154;2022-12-10T22:25:01;9.23;;;6.87;;
9900;SDS011;4989;48.772;9.154;2022-12-10T22:30:04;8.93;;;6.47;;
9900;SDS011;4989;48.772;9.154;2022-12-10T22:35:07;9.00;;;6.27;;
9900;SDS011;4989;48.772;9.154;2022-12-10T22:40:11;9.90;;;6.50;;
9900;SDS011;4989;48.772;9.154;2022-12-10T22:45:14;10.07;;;7.30;;
9900;SDS011;4989;48.772;9.154;2022-12-10T22:50:16;9.27;;;6.97;;
9900;SDS011;4989;48.772;9.154;2022-12-10T22:55:19;7.43;;;5.90;;
9900;SDS011;4989;48.772;9.154;2022-12-10T23:00:22;9.97;;;6.80;;
9900;SDS011;4989;48.772;9.154;2022-12-10T23:05:25;9.17;;;6.30;;
9900;SDS011;4989;48.772;9.154;2022-12-10T23:10:27;9.87;;;7.03;;
9900;SDS011;4989;48.772;9.154;2022-12-10T23:15:29;10.70;;;6.97;;
9900;SDS011;4989;48.772;9.154;2022-12-10T23:20:32;8.17;;;6.03;;
9900;SDS011;4989;48.772;9.154;2022-12-10T23:25:38;9.87;;;6.83;;
9900;SDS011;4989;48.772;9.154;2022-12-10T23:30:44;8.97;;;6.60;;
9900;SDS011;4989;48.772;9.154;2022-12-10T23:35:54;10.73;;;6.87;;
9900;SDS011;4989;48.772;9.154;2022-12-10T23:40:56;8.87;;;6.43;;
9900;SDS011;4989;48.772;9.154;2022-12-10T23:45:59;9.13;;;6.83;;
9900;SDS011;4989;48.772;9.154;2022-12-10T23:51:03;7.97;;;5.87;;
9900;SDS011;4989;48.772;9.154;2022-12-10T23:56:12;8.17;;;6.00;;
